Terminal Aerodrome Forecast
Issued by NWS Twin Cities, MN

Home | Current Version | Previous Version | Graphics & Text | Print | Product List | Glossary On
Versions: 1 2 3 4 5 6 7 8 9 10 11 12 13 14 15
000
FTUS43 KMPX 210520
TAFEAU
TAF
KEAU 210520Z 2106/2206 VRB03KT P6SM SCT060 BKN100
     FM211200 VRB03KT P6SM VCTS BKN050CB
     FM211500 12004KT P6SM SCT050 BKN100
     FM220000 32004KT P6SM BKN050 PROB30 2201/2205 4SM TSRA
      OVC030CB=

USA.gov is the U.S. government's official web portal to all federal, state and local government web resources and services.